TimeCDT,TemperatureF,Dew PointF,Humidity,Sea Level PressureIn,VisibilityMPH,Wind Direction,Wind SpeedMPH,Gust SpeedMPH,PrecipitationIn,Events,Conditions,WindDirDegrees,DateUTC
12:58 AM,39.4,36.3,89,30.11,10.0,South,2.3,-,N/A,,Clear,170,2013-10-17 05:58:00
1:58 AM,40.3,37.0,88,30.10,8.0,Calm,Calm,-,N/A,,Clear,0,2013-10-17 06:58:00
2:38 AM,39.2,35.6,87,30.09,6.0,South,2.3,-,N/A,,Clear,180,2013-10-17 07:38:00
2:43 AM,39.2,37.4,93,30.09,5.0,Calm,Calm,-,N/A,,Clear,0,2013-10-17 07:43:00
2:53 AM,39.2,37.4,93,30.09,5.0,Calm,Calm,-,N/A,,Clear,0,2013-10-17 07:53:00
2:58 AM,39.4,36.5,89,30.10,5.0,Calm,Calm,-,N/A,,Clear,0,2013-10-17 07:58:00
3:03 AM,39.2,37.4,93,30.08,4.0,Calm,Calm,-,N/A,,Clear,0,2013-10-17 08:03:00
3:08 AM,39.2,35.6,87,30.08,5.0,Calm,Calm,-,N/A,,Clear,0,2013-10-17 08:08:00
3:18 AM,37.4,33.8,87,30.08,6.0,Calm,Calm,-,N/A,,Clear,0,2013-10-17 08:18:00
3:28 AM,37.4,35.6,93,30.08,5.0,Calm,Calm,-,N/A,,Clear,0,2013-10-17 08:28:00
3:48 AM,39.2,37.4,93,30.08,7.0,WSW,4.6,-,N/A,,Clear,240,2013-10-17 08:48:00
3:53 AM,39.2,37.4,93,30.08,10.0,SW,4.6,-,N/A,,Clear,230,2013-10-17 08:53:00
3:58 AM,39.7,36.9,89,30.09,10.0,West,4.6,-,N/A,,Clear,270,2013-10-17 08:58:00
4:58 AM,40.6,36.5,85,30.09,9.0,WNW,5.8,-,N/A,,Clear,290,2013-10-17 09:58:00
5:18 AM,41.0,35.6,81,30.08,9.0,WNW,3.5,-,N/A,,Clear,290,2013-10-17 10:18:00
5:23 AM,39.2,35.6,87,30.08,7.0,West,2.3,-,N/A,,Clear,280,2013-10-17 10:23:00
5:33 AM,37.4,35.6,93,30.08,8.0,West,2.3,-,N/A,,Clear,270,2013-10-17 10:33:00
5:48 AM,37.4,33.8,87,30.08,6.0,West,2.3,-,N/A,,Clear,280,2013-10-17 10:48:00
5:53 AM,37.4,33.8,87,30.08,5.0,West,2.3,-,N/A,,Clear,280,2013-10-17 10:53:00
5:58 AM,37.0,34.2,89,30.09,5.0,West,3.5,-,N/A,,Clear,270,2013-10-17 10:58:00
6:58 AM,36.1,34.0,92,30.09,9.0,Calm,Calm,-,N/A,,Clear,0,2013-10-17 11:58:00
7:18 AM,37.4,33.8,87,30.08,7.0,SW,2.3,-,N/A,,Clear,220,2013-10-17 12:18:00
7:23 AM,37.4,33.8,87,30.08,7.0,SW,3.5,-,N/A,,Clear,220,2013-10-17 12:23:00
7:33 AM,37.4,33.8,87,30.08,9.0,South,3.5,-,N/A,,Clear,190,2013-10-17 12:33:00
7:38 AM,37.4,33.8,87,30.08,8.0,South,2.3,-,N/A,,Clear,190,2013-10-17 12:38:00
7:58 AM,36.1,34.2,93,30.10,10.0,Calm,Calm,-,N/A,,Clear,0,2013-10-17 12:58:00
8:58 AM,42.8,38.5,85,30.10,10.0,SSW,4.6,-,N/A,,Clear,210,2013-10-17 13:58:00
9:58 AM,51.6,38.8,62,30.11,10.0,WSW,5.8,-,N/A,,Clear,250,2013-10-17 14:58:00
10:58 AM,56.3,40.6,56,30.10,10.0,Variable,4.6,-,N/A,,Clear,0,2013-10-17 15:58:00
11:58 AM,61.2,42.1,50,30.09,10.0,WSW,6.9,-,N/A,,Clear,250,2013-10-17 16:58:00
12:58 PM,65.8,39.9,39,30.06,10.0,Variable,1.2,-,N/A,,Clear,0,2013-10-17 17:58:00
1:58 PM,69.1,37.6,32,30.02,10.0,SSE,5.8,-,N/A,,Clear,160,2013-10-17 18:58:00
2:58 PM,72.3,36.1,27,29.99,10.0,SSW,3.5,-,N/A,,Clear,210,2013-10-17 19:58:00
3:58 PM,73.0,39.7,30,29.97,10.0,SE,8.1,-,N/A,,Clear,130,2013-10-17 20:58:00
4:58 PM,73.0,42.8,34,29.95,10.0,Calm,Calm,-,N/A,,Clear,0,2013-10-17 21:58:00
5:58 PM,71.6,44.2,37,29.94,10.0,SSE,4.6,-,N/A,,Clear,160,2013-10-17 22:58:00
6:43 PM,69.8,44.6,40,29.95,10.0,SE,8.1,-,N/A,,Overcast,140,2013-10-17 23:43:00
6:53 PM,68.0,44.6,43,29.95,10.0,SSE,6.9,-,N/A,,Overcast,150,2013-10-17 23:53:00
6:58 PM,67.1,45.0,45,29.95,10.0,SSE,5.8,-,N/A,,Overcast,150,2013-10-17 23:58:00
7:58 PM,62.2,44.4,52,29.96,10.0,SE,6.9,-,N/A,,Scattered Clouds,140,2013-10-18 00:58:00
8:58 PM,58.8,44.2,58,29.98,10.0,SSE,8.1,-,N/A,,Mostly Cloudy,150,2013-10-18 01:58:00
9:58 PM,59.5,45.9,61,29.98,10.0,SE,4.6,-,N/A,,Overcast,130,2013-10-18 02:58:00
10:58 PM,56.7,44.8,64,29.98,10.0,SSE,3.5,-,N/A,,Clear,160,2013-10-18 03:58:00
11:58 PM,54.3,44.1,68,29.98,10.0,SE,8.1,-,N/A,,Mostly Cloudy,130,2013-10-18 04:58:00